Time;durP1;ratioP1;P1;durP2;ratioP2;P2;SDS_P1;SDS_P2;PMS_P1;PMS_P2;Temp;Humidity;BMP_temperature;BMP_pressure;BME280_temperature;BME280_humidity;BME280_pressure;Samples;Min_cycle;Max_cycle;Signal;HPM_P1;HPM_P2
2022/09/01 00:01:28;;;;;;;5.00;0.90;;;13.90;99.90;;;;;;4973922;28;20047;-78
2022/09/01 00:04:02;;;;;;;4.40;1.10;;;13.90;99.90;;;;;;4961912;28;20074;-78
2022/09/01 00:06:29;;;;;;;3.45;0.80;;;13.90;99.90;;;;;;4959603;28;20045;-78
2022/09/01 00:08:57;;;;;;;1.98;0.80;;;13.90;99.90;;;;;;4963056;28;20070;-79
2022/09/01 00:11:25;;;;;;;3.33;0.98;;;13.90;99.90;;;;;;4961591;28;20496;-78
2022/09/01 00:13:52;;;;;;;5.28;0.95;;;13.80;99.90;;;;;;4991352;28;20114;-79
2022/09/01 00:16:18;;;;;;;5.72;1.77;;;13.80;99.90;;;;;;4965731;28;20047;-79
2022/09/01 00:18:48;;;;;;;2.90;0.85;;;13.70;99.90;;;;;;4950520;28;20176;-78
2022/09/01 00:21:19;;;;;;;1.90;0.77;;;13.70;99.90;;;;;;4943463;28;20091;-78
2022/09/01 00:23:46;;;;;;;4.20;1.20;;;13.70;99.90;;;;;;4981637;28;20578;-78
2022/09/01 00:26:12;;;;;;;2.60;0.85;;;13.70;99.90;;;;;;4960780;28;20065;-78
2022/09/01 00:28:38;;;;;;;4.70;0.85;;;13.70;99.90;;;;;;4959873;28;20093;-78
2022/09/01 00:31:05;;;;;;;2.45;0.98;;;13.70;99.90;;;;;;4962278;28;20677;-80
2022/09/01 00:33:32;;;;;;;2.67;0.70;;;13.70;99.90;;;;;;4961400;28;20047;-81
2022/09/01 00:35:58;;;;;;;1.25;0.68;;;13.60;99.90;;;;;;4963094;28;20046;-78
2022/09/01 00:38:25;;;;;;;1.75;0.98;;;13.60;99.90;;;;;;4963927;28;20125;-78
2022/09/01 00:40:51;;;;;;;6.35;1.00;;;13.60;99.90;;;;;;4958130;28;20038;-83
2022/09/01 00:43:35;;;;;;;2.78;0.70;;;13.60;99.90;;;;;;4990903;28;20142;-78
2022/09/01 00:46:02;;;;;;;1.67;1.00;;;13.60;99.90;;;;;;4963335;28;20046;-80
2022/09/01 00:48:28;;;;;;;3.85;1.02;;;13.60;99.90;;;;;;4993120;28;20042;-78
2022/09/01 00:50:55;;;;;;;5.07;1.50;;;13.50;99.90;;;;;;4966419;28;20051;-80
2022/09/01 00:53:20;;;;;;;2.80;0.65;;;13.50;99.90;;;;;;4955587;28;20558;-79
2022/09/01 00:55:46;;;;;;;1.75;0.95;;;13.50;99.90;;;;;;4972533;28;20129;-79
2022/09/01 00:58:11;;;;;;;1.73;0.70;;;13.50;99.90;;;;;;4995893;28;20047;-78
2022/09/01 01:00:39;;;;;;;3.13;0.55;;;13.50;99.90;;;;;;4966858;28;20046;-78
2022/09/01 01:03:13;;;;;;;3.42;0.70;;;13.40;99.90;;;;;;4966020;28;20481;-78
2022/09/01 01:05:52;;;;;;;2.35;0.82;;;13.40;99.90;;;;;;4980515;28;20495;-78
2022/09/01 01:08:35;;;;;;;3.17;0.70;;;13.40;99.90;;;;;;4966931;28;20119;-78
2022/09/01 01:11:16;;;;;;;3.90;0.88;;;13.40;99.90;;;;;;4982975;28;20447;-79
2022/09/01 01:14:04;;;;;;;2.60;0.60;;;13.40;99.90;;;;;;4961712;28;20126;-78
2022/09/01 01:16:30;;;;;;;1.48;0.65;;;13.30;99.90;;;;;;4994801;28;20496;-77
2022/09/01 01:18:56;;;;;;;5.25;1.25;;;13.30;99.90;;;;;;4965313;28;20053;-80
2022/09/01 01:24:27;;;;;;;2.22;0.68;;;13.30;99.90;;;;;;4964235;28;20066;-78
2022/09/01 01:26:58;;;;;;;1.00;0.52;;;13.30;99.90;;;;;;4966476;28;20058;-79
2022/09/01 01:29:31;;;;;;;2.83;0.70;;;13.30;99.90;;;;;;4978480;28;20035;-78
2022/09/01 01:31:57;;;;;;;2.10;1.00;;;13.20;99.90;;;;;;4977564;28;20055;-78
2022/09/01 01:34:24;;;;;;;1.55;0.73;;;13.20;99.90;;;;;;4965446;28;20078;-78
2022/09/01 01:36:49;;;;;;;3.38;0.70;;;13.20;99.90;;;;;;4959846;28;20069;-78
2022/09/01 01:39:24;;;;;;;7.75;1.08;;;13.10;99.90;;;;;;4951493;28;20046;-78
2022/09/01 01:41:51;;;;;;;2.88;0.82;;;13.10;99.90;;;;;;4996898;28;20158;-78
2022/09/01 01:44:21;;;;;;;1.77;0.77;;;13.10;99.90;;;;;;4962748;28;20126;-82
2022/09/01 01:46:50;;;;;;;1.90;0.98;;;13.10;99.90;;;;;;4965418;28;20042;-78
2022/09/01 01:49:19;;;;;;;1.70;0.70;;;13.00;99.90;;;;;;4960628;28;20049;-82
2022/09/01 01:51:56;;;;;;;2.70;1.10;;;13.00;99.90;;;;;;4969119;28;20182;-77
2022/09/01 01:54:22;;;;;;;0.90;0.60;;;13.00;99.90;;;;;;4995457;28;20046;-78
2022/09/01 01:56:48;;;;;;;1.20;0.50;;;13.00;99.90;;;;;;4965960;28;20158;-78
2022/09/01 01:59:15;;;;;;;1.85;0.60;;;13.00;99.90;;;;;;4991029;28;20074;-79
2022/09/01 02:01:42;;;;;;;1.92;1.10;;;12.90;99.90;;;;;;4952705;28;20102;-78
2022/09/01 02:04:10;;;;;;;0.95;0.73;;;13.00;99.90;;;;;;4965049;28;20046;-78
2022/09/01 02:06:40;;;;;;;2.22;0.70;;;12.90;99.90;;;;;;4965814;28;20031;-80
2022/09/01 02:09:06;;;;;;;1.17;0.73;;;12.90;99.90;;;;;;4959583;28;20043;-79
2022/09/01 02:11:36;;;;;;;4.22;0.80;;;12.90;99.90;;;;;;4966990;28;20049;-78
2022/09/01 02:14:02;;;;;;;2.15;0.52;;;12.90;99.90;;;;;;4948602;28;20035;-78
2022/09/01 02:16:31;;;;;;;2.95;0.73;;;12.90;99.90;;;;;;4962353;28;20042;-78
2022/09/01 02:18:57;;;;;;;3.60;0.60;;;12.80;99.90;;;;;;4960723;28;21798;-78
2022/09/01 02:21:25;;;;;;;1.98;0.70;;;12.80;99.90;;;;;;4959842;28;20082;-80
2022/09/01 02:24:01;;;;;;;1.65;0.80;;;12.90;99.90;;;;;;4965122;28;20069;-80
2022/09/01 02:26:38;;;;;;;0.82;0.60;;;12.90;99.90;;;;;;4994292;28;20046;-78
2022/09/01 02:29:08;;;;;;;1.33;0.55;;;12.80;99.90;;;;;;4963187;28;20146;-80
2022/09/01 02:31:38;;;;;;;3.03;0.70;;;12.80;99.90;;;;;;4990747;28;20543;-78
2022/09/01 02:34:09;;;;;;;2.35;0.80;;;12.80;99.90;;;;;;4963747;28;20035;-79
2022/09/01 02:36:41;;;;;;;3.97;0.88;;;12.80;99.90;;;;;;4962787;28;20074;-79
2022/09/01 02:39:06;;;;;;;1.00;0.65;;;12.70;99.90;;;;;;4995684;28;20046;-78
2022/09/01 02:41:33;;;;;;;2.55;0.93;;;12.70;99.90;;;;;;4991000;28;20046;-78
2022/09/01 02:44:01;;;;;;;4.28;0.70;;;12.80;99.90;;;;;;4966021;28;20060;-78
2022/09/01 02:46:28;;;;;;;2.35;1.08;;;12.70;99.90;;;;;;4966924;28;20526;-79
2022/09/01 02:48:54;;;;;;;2.60;0.55;;;12.70;99.90;;;;;;4989422;28;20118;-78
2022/09/01 02:51:25;;;;;;;1.80;0.70;;;12.70;99.90;;;;;;4946643;28;20043;-78
2022/09/01 02:53:52;;;;;;;1.73;0.77;;;12.70;99.90;;;;;;4964055;28;20102;-79
2022/09/01 02:56:21;;;;;;;1.40;0.77;;;12.70;99.90;;;;;;4965178;28;20051;-78
2022/09/01 02:58:47;;;;;;;2.33;0.70;;;12.70;99.90;;;;;;4980377;28;20067;-78
2022/09/01 03:01:19;;;;;;;3.08;0.68;;;12.70;99.90;;;;;;4964111;28;20074;-81
2022/09/01 03:03:45;;;;;;;1.67;0.60;;;12.70;99.90;;;;;;4964404;28;20063;-78
2022/09/01 03:06:11;;;;;;;0.88;0.60;;;12.70;99.90;;;;;;4963679;28;20073;-78
2022/09/01 03:08:37;;;;;;;1.00;0.57;;;12.70;99.90;;;;;;4963082;28;20520;-80
2022/09/01 03:11:07;;;;;;;1.70;0.80;;;12.70;99.90;;;;;;4963719;28;20134;-79
2022/09/01 03:13:32;;;;;;;1.25;0.60;;;12.70;99.90;;;;;;4993689;28;20432;-80
2022/09/01 03:15:58;;;;;;;2.50;1.52;;;12.70;99.90;;;;;;4964947;28;20046;-80
2022/09/01 03:18:24;;;;;;;1.38;1.00;;;12.70;99.90;;;;;;4949549;28;20042;-78
2022/09/01 03:20:51;;;;;;;2.55;0.75;;;12.70;99.90;;;;;;4961683;28;20042;-78
2022/09/01 03:23:17;;;;;;;1.38;0.63;;;12.70;99.90;;;;;;4991420;28;20047;-79
2022/09/01 03:25:45;;;;;;;3.50;0.70;;;12.60;99.90;;;;;;4965874;28;20047;-79
2022/09/01 03:28:12;;;;;;;3.00;0.80;;;12.70;99.90;;;;;;4960017;28;20466;-79
2022/09/01 03:30:42;;;;;;;1.15;0.75;;;12.70;99.90;;;;;;4990726;28;20054;-78
2022/09/01 03:33:09;;;;;;;1.88;0.70;;;12.60;99.90;;;;;;4964034;28;20462;-79
2022/09/01 03:35:34;;;;;;;3.70;0.85;;;12.60;99.90;;;;;;4990262;28;20039;-79
2022/09/01 03:38:01;;;;;;;1.88;0.75;;;12.70;99.90;;;;;;4948595;28;20100;-79
2022/09/01 03:40:31;;;;;;;2.28;0.80;;;12.60;99.90;;;;;;4945929;28;20046;-78
2022/09/01 03:42:58;;;;;;;1.40;0.60;;;12.60;99.90;;;;;;4989751;28;20280;-79
2022/09/01 03:45:24;;;;;;;3.45;1.02;;;12.50;99.90;;;;;;4959432;28;20046;-78
2022/09/01 03:47:53;;;;;;;2.30;0.85;;;12.50;99.90;;;;;;4994369;28;20117;-78
2022/09/01 03:50:20;;;;;;;5.70;1.83;;;12.50;99.90;;;;;;4992605;28;20079;-79
2022/09/01 03:52:57;;;;;;;1.77;0.80;;;12.50;99.90;;;;;;4960019;28;20924;-77
2022/09/01 03:55:27;;;;;;;1.88;1.05;;;12.50;99.90;;;;;;4976788;28;20074;-77
2022/09/01 03:57:55;;;;;;;2.25;0.90;;;12.50;99.90;;;;;;4989305;28;20039;-79
2022/09/01 04:00:23;;;;;;;1.77;0.88;;;12.50;99.90;;;;;;4960526;28;20046;-78
2022/09/01 04:02:51;;;;;;;2.80;0.90;;;12.40;99.90;;;;;;4990766;28;20509;-78
2022/09/01 04:05:23;;;;;;;3.65;0.93;;;12.50;99.90;;;;;;4960902;28;20043;-79
2022/09/01 04:07:50;;;;;;;0.73;0.63;;;12.40;99.90;;;;;;4959504;28;20144;-81
2022/09/01 04:10:21;;;;;;;2.65;1.25;;;12.40;99.90;;;;;;4967035;28;20114;-79
2022/09/01 04:12:47;;;;;;;2.45;1.10;;;12.40;99.90;;;;;;4965563;28;20414;-80
2022/09/01 04:15:15;;;;;;;1.77;0.90;;;12.40;99.90;;;;;;4957821;28;20038;-80
2022/09/01 04:18:08;;;;;;;3.35;0.82;;;12.40;99.90;;;;;;4970986;28;20121;-80
2022/09/01 04:23:11;;;;;;;7.15;1.20;;;12.40;99.90;;;;;;3314836;26;20047;-80
2022/09/01 04:25:37;;;;;;;2.72;0.80;;;12.30;99.90;;;;;;4977564;28;20050;-78
2022/09/01 04:28:13;;;;;;;5.97;1.40;;;12.30;99.90;;;;;;4979809;28;20042;-78
2022/09/01 04:30:42;;;;;;;3.88;1.20;;;12.30;99.90;;;;;;4942163;28;20047;-83
2022/09/01 04:33:08;;;;;;;4.15;0.93;;;12.30;99.90;;;;;;4951904;28;20047;-77
2022/09/01 04:35:38;;;;;;;2.00;0.88;;;12.30;99.90;;;;;;4962449;28;20093;-81
2022/09/01 04:38:07;;;;;;;2.72;1.45;;;12.30;99.90;;;;;;4947503;28;20050;-78
2022/09/01 04:40:37;;;;;;;1.98;0.77;;;12.40;99.90;;;;;;4943123;28;20055;-80
2022/09/01 04:43:04;;;;;;;1.88;0.82;;;12.30;99.90;;;;;;4959834;28;20472;-79
2022/09/01 04:45:30;;;;;;;3.58;0.93;;;12.40;99.90;;;;;;4963212;28;20043;-79
2022/09/01 04:47:57;;;;;;;1.98;0.63;;;12.30;99.90;;;;;;4963069;28;20109;-80
2022/09/01 04:50:29;;;;;;;2.35;1.00;;;12.40;99.90;;;;;;4949185;28;20055;-81
2022/09/01 04:53:04;;;;;;;4.80;0.80;;;12.30;99.90;;;;;;4961320;28;20066;-78
2022/09/01 04:55:30;;;;;;;3.10;1.05;;;12.30;99.90;;;;;;4960330;28;20122;-77
2022/09/01 04:57:58;;;;;;;1.83;1.17;;;12.40;99.90;;;;;;4922087;28;20039;-77
2022/09/01 05:00:26;;;;;;;2.20;1.00;;;12.30;99.90;;;;;;4946754;28;20066;-80
2022/09/01 05:03:01;;;;;;;3.00;0.93;;;12.40;99.90;;;;;;4958778;28;20054;-78
2022/09/01 05:05:28;;;;;;;1.42;0.70;;;12.30;99.90;;;;;;4928740;28;20047;-81
2022/09/01 05:07:54;;;;;;;2.20;1.10;;;12.30;99.90;;;;;;4958383;28;20050;-77
2022/09/01 05:10:21;;;;;;;3.28;0.90;;;12.30;99.90;;;;;;4960610;28;20094;-79
2022/09/01 05:12:48;;;;;;;3.00;0.85;;;12.40;99.90;;;;;;4960545;28;20075;-77
2022/09/01 05:15:16;;;;;;;7.13;1.65;;;12.40;99.90;;;;;;4961678;28;20560;-77
2022/09/01 05:17:42;;;;;;;2.65;1.02;;;12.40;99.90;;;;;;4949730;28;20051;-77
2022/09/01 05:20:10;;;;;;;2.58;1.10;;;12.50;99.90;;;;;;4948708;28;20494;-81
2022/09/01 05:22:39;;;;;;;5.25;1.10;;;12.40;99.90;;;;;;4964560;28;20122;-74
2022/09/01 05:25:13;;;;;;;2.53;0.82;;;12.50;99.90;;;;;;4967019;28;20047;-81
2022/09/01 05:27:40;;;;;;;4.57;0.68;;;12.70;99.90;;;;;;4968912;28;20728;-80
2022/09/01 05:30:07;;;;;;;2.95;0.82;;;13.70;99.90;;;;;;4932641;28;20078;-81
2022/09/01 05:32:36;;;;;;;2.22;0.77;;;15.00;99.90;;;;;;4966686;28;20047;-81
2022/09/01 05:35:05;;;;;;;3.88;0.90;;;16.30;99.90;;;;;;4938905;28;20433;-81
2022/09/01 05:37:31;;;;;;;1.65;0.60;;;17.40;99.90;;;;;;4948405;28;20059;-79
2022/09/01 05:39:57;;;;;;;1.63;0.50;;;18.10;99.90;;;;;;4952417;28;20463;-80
2022/09/01 05:42:23;;;;;;;4.90;0.70;;;18.00;99.90;;;;;;4955755;28;20126;-80
2022/09/01 05:44:48;;;;;;;2.88;0.65;;;17.80;99.90;;;;;;4969998;28;20047;-79
2022/09/01 05:47:15;;;;;;;3.30;0.50;;;17.80;99.90;;;;;;4973261;28;20058;-80
2022/09/01 05:49:40;;;;;;;3.65;0.70;;;17.80;99.90;;;;;;4952592;28;20449;-80
2022/09/01 05:52:08;;;;;;;1.55;0.88;;;18.10;99.90;;;;;;4967526;28;20086;-80
2022/09/01 05:54:34;;;;;;;2.75;0.60;;;18.00;99.90;;;;;;4970953;28;20038;-80
2022/09/01 05:57:01;;;;;;;1.35;0.60;;;18.30;99.90;;;;;;4973368;28;20043;-81
2022/09/01 05:59:30;;;;;;;1.42;0.60;;;18.60;99.90;;;;;;4952018;28;20079;-82
2022/09/01 06:01:56;;;;;;;1.30;0.68;;;19.00;99.90;;;;;;4965444;28;20492;-82
2022/09/01 06:04:26;;;;;;;1.75;0.60;;;20.10;99.90;;;;;;4968703;28;20043;-81
2022/09/01 06:06:54;;;;;;;0.85;0.40;;;21.20;99.90;;;;;;4959754;28;20043;-82
2022/09/01 06:09:22;;;;;;;2.47;0.70;;;22.50;99.90;;;;;;4940612;28;20055;-79
2022/09/01 06:11:48;;;;;;;2.30;0.50;;;23.60;99.90;;;;;;4969122;28;20217;-80
2022/09/01 06:14:15;;;;;;;2.58;0.55;;;23.70;99.60;;;;;;4935084;28;20047;-81
2022/09/01 06:16:42;;;;;;;0.60;0.40;;;24.40;98.50;;;;;;4934358;28;20032;-81
2022/09/01 06:19:09;;;;;;;3.30;0.47;;;25.30;97.80;;;;;;4959534;28;20038;-79
2022/09/01 06:21:37;;;;;;;3.13;0.68;;;25.70;96.20;;;;;;4958544;28;20058;-80
2022/09/01 06:24:06;;;;;;;1.55;0.70;;;26.40;95.40;;;;;;4940943;28;20403;-81
2022/09/01 06:26:34;;;;;;;3.97;0.70;;;26.70;94.50;;;;;;4959337;28;20051;-81
2022/09/01 06:29:04;;;;;;;0.88;0.45;;;27.20;93.60;;;;;;4944194;28;20042;-81
2022/09/01 06:31:33;;;;;;;3.17;0.90;;;27.40;92.70;;;;;;4940240;29;20083;-79
2022/09/01 06:34:02;;;;;;;5.63;0.50;;;27.30;92.30;;;;;;4932071;28;20055;-80
2022/09/01 06:36:31;;;;;;;1.73;0.70;;;27.70;91.80;;;;;;4940285;28;20078;-82
2022/09/01 06:39:00;;;;;;;6.00;0.68;;;28.00;91.00;;;;;;4970208;28;20102;-81
2022/09/01 06:41:27;;;;;;;3.40;0.60;;;27.70;90.70;;;;;;4954954;28;22040;-79
2022/09/01 06:43:53;;;;;;;4.10;0.50;;;28.00;90.50;;;;;;4964850;28;20127;-81
2022/09/01 06:46:26;;;;;;;2.28;0.60;;;28.10;89.30;;;;;;4935692;28;20091;-82
2022/09/01 06:48:53;;;;;;;1.50;0.77;;;28.10;88.60;;;;;;4935272;28;20413;-80
2022/09/01 06:51:21;;;;;;;3.80;0.70;;;28.20;87.80;;;;;;4956090;28;21699;-83
2022/09/01 06:54:00;;;;;;;3.25;0.57;;;28.40;86.70;;;;;;4956052;28;20079;-80
2022/09/01 06:56:28;;;;;;;3.10;0.70;;;28.70;87.40;;;;;;4943619;28;20058;-80
2022/09/01 06:58:54;;;;;;;1.70;0.77;;;29.40;86.90;;;;;;4941995;29;20054;-81
2022/09/01 07:01:30;;;;;;;2.15;0.60;;;29.90;85.70;;;;;;4971145;28;20820;-81
2022/09/01 07:03:56;;;;;;;1.90;0.57;;;29.60;83.70;;;;;;4938724;29;20121;-81
2022/09/01 07:06:26;;;;;;;1.83;0.60;;;29.20;83.10;;;;;;4953787;28;20043;-81
2022/09/01 07:09:00;;;;;;;1.85;0.77;;;28.20;83.80;;;;;;4941648;28;20046;-84
2022/09/01 07:11:29;;;;;;;2.40;0.60;;;27.40;85.10;;;;;;4955104;28;20117;-80
2022/09/01 07:14:02;;;;;;;4.15;0.60;;;26.00;85.90;;;;;;4984110;28;20055;-80
2022/09/01 07:16:30;;;;;;;2.70;0.65;;;25.30;88.10;;;;;;4969502;28;20419;-79
2022/09/01 07:18:59;;;;;;;2.83;0.65;;;24.80;89.20;;;;;;4951952;28;20058;-79
2022/09/01 07:21:26;;;;;;;1.83;0.70;;;24.50;90.10;;;;;;4947973;28;20043;-81
2022/09/01 07:23:52;;;;;;;9.60;0.93;;;24.20;90.30;;;;;;4940666;28;20054;-80
2022/09/01 07:26:24;;;;;;;2.33;0.70;;;23.80;90.50;;;;;;4934266;28;20050;-80
2022/09/01 07:28:51;;;;;;;1.33;0.63;;;23.50;90.90;;;;;;4949733;28;20049;-80
2022/09/01 07:31:26;;;;;;;2.47;0.70;;;23.10;91.40;;;;;;4949520;28;20069;-80
2022/09/01 07:33:57;;;;;;;2.40;0.75;;;22.70;91.90;;;;;;4952533;28;20554;-80
2022/09/01 07:36:24;;;;;;;0.90;0.43;;;22.20;92.70;;;;;;4960489;28;20062;-80
2022/09/01 07:38:52;;;;;;;0.93;0.38;;;21.90;93.10;;;;;;4950847;28;20049;-79
2022/09/01 07:41:23;;;;;;;1.60;0.40;;;21.70;93.50;;;;;;4917583;28;20039;-79
2022/09/01 07:43:52;;;;;;;1.00;0.50;;;21.40;93.80;;;;;;4931025;28;20412;-82
2022/09/01 07:46:19;;;;;;;2.20;0.93;;;21.20;94.30;;;;;;4948714;28;20039;-79
2022/09/01 07:48:47;;;;;;;0.65;0.40;;;21.00;94.30;;;;;;4949669;28;20061;-77
2022/09/01 07:51:17;;;;;;;1.08;0.50;;;20.90;94.60;;;;;;4922817;28;20050;-81
2022/09/01 07:53:47;;;;;;;5.15;0.60;;;20.80;94.80;;;;;;4951224;28;20069;-78
2022/09/01 07:56:17;;;;;;;2.17;0.65;;;20.80;95.40;;;;;;4915971;28;20046;-77
2022/09/01 07:58:43;;;;;;;3.05;0.60;;;20.70;95.20;;;;;;4929969;28;20668;-78
2022/09/01 08:01:17;;;;;;;1.90;0.60;;;20.80;95.30;;;;;;4935146;28;20133;-82
2022/09/01 08:03:49;;;;;;;5.53;0.80;;;20.70;95.30;;;;;;4951408;28;20046;-77
2022/09/01 08:06:18;;;;;;;1.50;0.63;;;20.60;95.70;;;;;;4938769;28;20102;-79
2022/09/01 08:08:46;;;;;;;2.05;0.80;;;20.90;95.60;;;;;;4945082;28;20047;-79
2022/09/01 08:11:33;;;;;;;5.68;0.40;;;21.10;95.10;;;;;;4954220;28;20491;-79
2022/09/01 08:13:59;;;;;;;2.25;0.57;;;21.30;95.40;;;;;;4909003;28;20063;-77
2022/09/01 08:16:26;;;;;;;3.03;0.88;;;21.60;95.50;;;;;;4953738;28;20114;-81
2022/09/01 08:18:52;;;;;;;3.65;0.60;;;21.60;94.90;;;;;;4930690;28;20460;-78
2022/09/01 08:21:20;;;;;;;3.60;0.77;;;21.80;94.80;;;;;;4949937;28;20053;-82
2022/09/01 08:23:47;;;;;;;1.50;0.40;;;22.10;94.90;;;;;;4950383;28;20108;-82
2022/09/01 08:26:17;;;;;;;2.50;0.50;;;22.20;94.70;;;;;;4951027;28;20046;-82
2022/09/01 08:28:44;;;;;;;5.30;0.50;;;22.40;94.60;;;;;;4920037;28;20125;-81
2022/09/01 08:31:12;;;;;;;1.05;0.50;;;22.60;94.50;;;;;;4918721;28;20574;-81
2022/09/01 08:33:40;;;;;;;1.98;0.52;;;22.60;93.90;;;;;;4924310;28;20048;-83
2022/09/01 08:36:28;;;;;;;3.08;0.40;;;22.60;94.10;;;;;;4973753;28;20042;-82
2022/09/01 08:47:07;;;;;;;3.72;0.63;;;22.70;93.40;;;;;;4890654;29;20043;-78
2022/09/01 08:49:35;;;;;;;1.35;0.60;;;22.70;93.00;;;;;;4890261;29;20885;-82
2022/09/01 08:52:12;;;;;;;1.73;0.40;;;22.70;93.10;;;;;;4931785;28;20584;-79
2022/09/01 08:54:47;;;;;;;4.63;0.73;;;22.80;93.40;;;;;;4918521;28;20047;-84
2022/09/01 08:57:35;;;;;;;4.13;0.55;;;22.90;93.40;;;;;;4921279;28;20387;-81
2022/09/01 09:00:01;;;;;;;3.00;0.40;;;23.00;93.00;;;;;;4940692;28;20058;-80
2022/09/01 09:02:57;;;;;;;2.28;0.50;;;23.00;92.70;;;;;;4935394;28;20878;-78
2022/09/01 09:05:56;;;;;;;1.23;0.40;;;23.20;92.90;;;;;;4939051;28;21816;-77
2022/09/01 09:08:31;;;;;;;4.60;0.68;;;23.40;92.80;;;;;;4936393;28;20038;-78
2022/09/01 09:11:00;;;;;;;3.65;0.50;;;23.60;93.20;;;;;;4920538;28;20062;-78
2022/09/01 09:14:13;;;;;;;1.90;0.30;;;23.70;92.30;;;;;;4950453;28;20516;-78
2022/09/01 09:16:47;;;;;;;1.73;0.60;;;23.40;91.30;;;;;;4897276;29;20817;-78
2022/09/01 09:19:21;;;;;;;4.60;0.40;;;23.60;92.00;;;;;;4909148;29;20036;-79
2022/09/01 09:21:48;;;;;;;2.22;0.30;;;23.50;92.00;;;;;;4917601;28;20553;-77
2022/09/01 09:24:22;;;;;;;5.68;0.40;;;23.70;91.90;;;;;;4925445;28;20047;-81
2022/09/01 09:26:53;;;;;;;3.73;0.40;;;23.70;91.90;;;;;;4946939;28;20197;-83
2022/09/01 09:29:21;;;;;;;2.83;0.65;;;23.60;91.50;;;;;;4955074;28;20596;-79
2022/09/01 09:31:48;;;;;;;3.15;0.40;;;23.60;91.10;;;;;;4952812;28;20043;-81
2022/09/01 09:34:27;;;;;;;2.63;0.30;;;23.60;91.00;;;;;;4938957;28;20043;-80
2022/09/01 09:36:53;;;;;;;1.33;0.30;;;23.60;91.00;;;;;;4937703;28;20074;-81
2022/09/01 09:39:19;;;;;;;2.25;0.50;;;23.70;91.60;;;;;;4942000;28;20575;-81
2022/09/01 09:42:06;;;;;;;2.85;0.60;;;23.80;90.90;;;;;;4955636;28;20046;-81
2022/09/01 09:44:32;;;;;;;4.63;0.52;;;23.70;90.80;;;;;;4924653;28;20046;-80
2022/09/01 09:46:58;;;;;;;4.55;0.60;;;23.60;90.60;;;;;;4920772;28;20054;-81
2022/09/01 09:49:28;;;;;;;0.50;0.30;;;23.40;90.30;;;;;;4938126;28;20706;-79
2022/09/01 09:52:09;;;;;;;4.28;0.25;;;23.40;90.80;;;;;;4954162;28;20067;-79
2022/09/01 09:54:36;;;;;;;4.57;0.30;;;23.30;90.00;;;;;;4920818;28;20412;-79
2022/09/01 09:57:10;;;;;;;7.20;0.50;;;23.30;90.30;;;;;;4939796;28;20051;-78
2022/09/01 09:59:43;;;;;;;4.07;0.38;;;23.30;91.00;;;;;;4936599;28;20186;-79
2022/09/01 10:02:25;;;;;;;3.25;0.65;;;23.50;91.20;;;;;;4947905;28;20066;-83
2022/09/01 10:04:51;;;;;;;2.80;0.50;;;23.50;90.50;;;;;;4934844;28;20170;-81
2022/09/01 10:07:36;;;;;;;2.92;0.30;;;23.40;90.40;;;;;;4939234;28;20110;-83
2022/09/01 10:10:37;;;;;;;3.43;0.83;;;23.50;90.50;;;;;;4938227;28;20046;-83
2022/09/01 10:13:06;;;;;;;0.88;0.30;;;23.60;90.10;;;;;;4932437;28;20326;-83
2022/09/01 10:15:33;;;;;;;1.65;0.38;;;23.60;89.60;;;;;;4954247;28;20043;-80
2022/09/01 10:18:13;;;;;;;3.88;0.30;;;23.30;88.30;;;;;;4965645;28;20146;-79
2022/09/01 10:20:52;;;;;;;1.35;0.30;;;23.40;89.30;;;;;;4968723;28;20098;-80
2022/09/01 10:23:18;;;;;;;1.92;0.50;;;23.30;89.10;;;;;;4948564;28;20462;-79
2022/09/01 10:25:44;;;;;;;5.18;0.50;;;23.40;89.30;;;;;;4965199;28;20141;-78
2022/09/01 10:28:16;;;;;;;7.38;0.50;;;23.40;87.80;;;;;;4933233;28;20062;-81
2022/09/01 10:30:44;;;;;;;6.45;0.40;;;23.50;86.90;;;;;;4966039;28;20055;-79
2022/09/01 10:33:12;;;;;;;1.60;0.30;;;23.50;86.80;;;;;;4961586;28;20149;-78
2022/09/01 10:35:44;;;;;;;3.78;0.52;;;23.70;88.50;;;;;;4952117;28;20451;-83
2022/09/01 10:38:16;;;;;;;0.85;0.30;;;24.00;87.30;;;;;;4954088;28;20725;-79
2022/09/01 10:40:46;;;;;;;1.95;0.25;;;23.80;86.20;;;;;;4920475;28;20053;-78
2022/09/01 10:43:24;;;;;;;3.42;0.30;;;23.90;85.30;;;;;;4954018;28;20121;-78
2022/09/01 10:45:49;;;;;;;4.03;0.35;;;24.00;85.00;;;;;;4953172;28;20089;-83
2022/09/01 10:48:22;;;;;;;2.67;0.47;;;24.00;84.40;;;;;;4953898;28;20142;-78
2022/09/01 10:50:54;;;;;;;2.75;0.93;;;24.10;84.50;;;;;;4952933;28;20059;-80
2022/09/01 10:53:43;;;;;;;0.70;0.30;;;24.00;81.50;;;;;;4921585;28;20111;-80
2022/09/01 10:56:23;;;;;;;1.13;0.30;;;24.10;83.20;;;;;;4954141;28;20047;-78
2022/09/01 10:58:58;;;;;;;2.40;0.20;;;24.00;82.00;;;;;;4953349;28;20130;-78
2022/09/01 11:01:39;;;;;;;1.00;0.30;;;23.60;82.40;;;;;;4925491;28;20051;-79
2022/09/01 11:04:05;;;;;;;1.42;0.20;;;23.60;83.90;;;;;;4959771;28;20135;-79
2022/09/01 11:06:40;;;;;;;1.23;0.30;;;23.70;84.00;;;;;;4957644;28;20049;-78
2022/09/01 11:09:35;;;;;;;3.42;0.30;;;23.70;82.10;;;;;;4949591;28;20432;-81
2022/09/01 11:12:15;;;;;;;1.77;0.65;;;23.80;82.40;;;;;;4919312;28;20062;-81
2022/09/01 11:15:02;;;;;;;0.88;0.17;;;23.50;82.30;;;;;;4948043;28;20053;-79
2022/09/01 11:17:53;;;;;;;2.15;0.20;;;23.70;83.80;;;;;;4951799;28;22000;-79
2022/09/01 11:20:35;;;;;;;1.25;0.30;;;23.90;83.50;;;;;;4922308;28;20058;-78
2022/09/01 11:23:26;;;;;;;3.08;0.25;;;23.90;81.30;;;;;;4937936;28;20474;-79
2022/09/01 11:25:53;;;;;;;4.47;0.47;;;23.90;82.50;;;;;;4952139;28;20055;-78
2022/09/01 11:28:22;;;;;;;0.88;0.30;;;23.80;82.70;;;;;;4952933;28;20597;-78
2022/09/01 11:31:02;;;;;;;0.73;0.25;;;23.90;81.60;;;;;;4951329;28;20657;-80
2022/09/01 11:33:49;;;;;;;2.67;0.40;;;24.10;82.20;;;;;;4936799;28;20055;-76
2022/09/01 11:36:36;;;;;;;2.55;0.77;;;24.10;81.30;;;;;;4953195;28;20523;-82
2022/09/01 11:39:07;;;;;;;3.90;0.30;;;23.90;81.00;;;;;;4918956;28;20047;-81
2022/09/01 11:41:39;;;;;;;0.88;0.22;;;24.10;81.40;;;;;;4953442;28;20101;-78
2022/09/01 11:44:24;;;;;;;3.00;0.30;;;24.10;82.30;;;;;;4921459;28;20055;-79
2022/09/01 11:46:51;;;;;;;;;;;24.20;83.00;;;;;;4949492;28;20773;-81
2022/09/01 11:49:27;;;;;;;1.15;0.30;;;24.10;79.80;;;;;;4940431;28;19933;-78
2022/09/01 11:51:52;;;;;;;1.42;0.25;;;23.80;80.60;;;;;;4924575;28;20137;-78
2022/09/01 11:54:18;;;;;;;3.63;0.40;;;23.50;80.90;;;;;;4953947;28;20508;-79
2022/09/01 11:56:44;;;;;;;4.00;0.38;;;23.50;82.80;;;;;;4923665;28;20056;-78
2022/09/01 11:59:10;;;;;;;3.15;0.32;;;23.60;83.10;;;;;;4953973;28;20050;-78
2022/09/01 12:01:38;;;;;;;2.03;0.28;;;23.50;82.80;;;;;;4955598;28;20579;-78
2022/09/01 12:04:26;;;;;;;3.80;0.43;;;23.30;82.30;;;;;;4953854;28;20050;-78
2022/09/01 12:07:06;;;;;;;5.68;0.57;;;23.10;82.30;;;;;;4920681;28;20063;-81
2022/09/01 12:09:44;;;;;;;0.80;0.30;;;23.30;84.60;;;;;;4938260;28;20491;-82
2022/09/01 12:12:31;;;;;;;0.95;0.45;;;23.50;82.70;;;;;;4954147;28;20177;-78
2022/09/01 12:15:08;;;;;;;1.63;0.30;;;23.40;81.90;;;;;;4956905;28;20051;-78
2022/09/01 12:17:34;;;;;;;2.75;0.30;;;23.50;83.10;;;;;;4962243;28;20047;-81
2022/09/01 12:20:26;;;;;;;3.05;0.50;;;23.80;84.70;;;;;;4946995;28;20066;-77
2022/09/01 12:22:51;;;;;;;4.97;0.30;;;23.80;82.80;;;;;;4947447;29;20042;-80
2022/09/01 12:25:24;;;;;;;2.67;0.30;;;23.50;82.10;;;;;;4964202;28;20058;-80
2022/09/01 12:27:50;;;;;;;1.10;0.20;;;23.10;82.40;;;;;;4954166;28;20150;-79
2022/09/01 12:30:17;;;;;;;5.60;0.63;;;23.10;84.20;;;;;;4946422;28;20043;-79
2022/09/01 12:32:43;;;;;;;2.33;0.20;;;23.20;83.00;;;;;;4922847;28;20638;-79
2022/09/01 12:35:20;;;;;;;2.42;0.70;;;23.40;82.80;;;;;;4953168;28;20050;-82
2022/09/01 12:37:47;;;;;;;4.30;0.50;;;23.60;82.50;;;;;;4937271;28;20047;-78
2022/09/01 12:40:31;;;;;;;2.05;0.20;;;23.40;82.20;;;;;;4953864;28;20055;-81
2022/09/01 12:42:56;;;;;;;2.03;0.32;;;23.30;81.00;;;;;;4951529;28;20050;-78
2022/09/01 12:45:40;;;;;;;0.80;0.20;;;23.10;81.90;;;;;;4927638;29;20058;-79
2022/09/01 12:48:22;;;;;;;0.70;0.30;;;23.10;82.30;;;;;;4921844;28;21469;-78
2022/09/01 12:50:49;;;;;;;3.42;0.28;;;23.20;82.50;;;;;;4921723;28;20050;-78
2022/09/01 12:53:18;;;;;;;1.10;0.30;;;23.30;81.80;;;;;;4951533;28;20055;-80
2022/09/01 12:55:58;;;;;;;0.52;0.25;;;23.30;82.70;;;;;;4938906;28;20704;-76
2022/09/01 12:58:26;;;;;;;1.77;0.30;;;23.40;83.10;;;;;;4958342;28;20051;-79
2022/09/01 13:00:57;;;;;;;4.93;0.80;;;23.70;83.40;;;;;;4939318;28;20503;-80
2022/09/01 13:03:23;;;;;;;4.45;0.20;;;23.70;82.50;;;;;;4956013;28;20058;-77
2022/09/01 13:05:53;;;;;;;3.67;0.30;;;23.70;81.60;;;;;;4954696;28;20110;-80
2022/09/01 13:08:27;;;;;;;1.23;0.30;;;23.80;80.10;;;;;;4957338;28;20074;-80
2022/09/01 13:10:55;;;;;;;7.18;0.22;;;23.90;80.40;;;;;;4955092;28;20035;-80
2022/09/01 13:13:25;;;;;;;1.25;0.40;;;24.10;81.10;;;;;;4924291;28;20048;-78
2022/09/01 13:15:54;;;;;;;4.28;0.28;;;23.80;78.80;;;;;;4923199;28;20039;-79
2022/09/01 13:18:22;;;;;;;0.40;0.20;;;23.80;79.40;;;;;;4954393;28;20051;-76
2022/09/01 13:20:49;;;;;;;4.28;0.32;;;23.50;79.90;;;;;;4925469;28;20043;-76